createdAt,value
2023-05-14T00:00:29.074Z,9.63
2023-05-14T00:02:55.606Z,9.73
2023-05-14T00:05:22.520Z,10.90
2023-05-14T00:07:49.230Z,10.98
2023-05-14T00:10:15.553Z,11.93
2023-05-14T00:12:41.920Z,10.20
2023-05-14T00:15:09.171Z,10.75
2023-05-14T00:17:36.354Z,11.55
2023-05-14T00:20:06.968Z,11.63
2023-05-14T00:22:34.904Z,10.55
2023-05-14T00:25:01.309Z,10.07
2023-05-14T00:27:27.670Z,10.73
2023-05-14T00:29:54.460Z,10.52
2023-05-14T00:32:21.002Z,9.70
2023-05-14T00:34:47.467Z,9.43
2023-05-14T00:37:14.126Z,11.98
2023-05-14T00:39:40.470Z,9.75
2023-05-14T00:42:06.974Z,10.98
2023-05-14T00:44:33.709Z,8.50
2023-05-14T00:47:00.678Z,10.05
2023-05-14T00:49:28.515Z,10.45
2023-05-14T00:51:55.672Z,10.82
2023-05-14T00:54:22.638Z,9.75
2023-05-14T00:56:49.184Z,9.45
2023-05-14T00:59:15.902Z,10.60
2023-05-14T01:01:42.548Z,11.32
2023-05-14T01:04:10.836Z,10.38
2023-05-14T01:06:40.311Z,8.13
2023-05-14T01:09:22.523Z,10.15
2023-05-14T01:12:01.072Z,9.70
2023-05-14T01:14:46.071Z,9.15
2023-05-14T01:17:15.725Z,7.97
2023-05-14T01:19:43.914Z,10.35
2023-05-14T01:22:11.252Z,12.63
2023-05-14T01:24:38.006Z,10.07
2023-05-14T01:27:16.935Z,8.77
2023-05-14T01:29:49.583Z,10.35
2023-05-14T01:32:17.686Z,10.45
2023-05-14T01:34:47.146Z,11.18
2023-05-14T01:37:14.191Z,10.30
2023-05-14T01:39:42.231Z,10.43
2023-05-14T01:42:09.498Z,9.93
2023-05-14T01:44:36.930Z,9.50
2023-05-14T01:47:03.515Z,10.95
2023-05-14T01:49:29.988Z,10.80
2023-05-14T01:51:56.356Z,10.48
2023-05-14T01:54:22.686Z,10.48
2023-05-14T01:56:49.009Z,12.00
2023-05-14T01:59:16.274Z,11.07
2023-05-14T02:01:42.654Z,11.05
2023-05-14T02:04:09.154Z,9.35
2023-05-14T02:06:35.908Z,11.18
2023-05-14T02:09:05.049Z,10.48
2023-05-14T02:11:31.390Z,11.32
2023-05-14T02:13:58.081Z,12.20
2023-05-14T02:16:24.464Z,14.38
2023-05-14T02:18:50.895Z,10.82
2023-05-14T02:21:17.725Z,13.15
2023-05-14T02:23:44.187Z,11.43
2023-05-14T02:26:11.004Z,13.43
2023-05-14T02:28:37.892Z,10.07
2023-05-14T02:31:04.326Z,12.50
2023-05-14T02:33:31.219Z,13.13
2023-05-14T02:35:57.722Z,11.93
2023-05-14T02:38:26.740Z,12.02
2023-05-14T02:40:53.123Z,13.35
2023-05-14T02:43:19.529Z,13.10
2023-05-14T02:45:46.168Z,11.70
2023-05-14T02:48:12.546Z,12.60
2023-05-14T02:50:38.981Z,13.35
2023-05-14T02:53:05.704Z,11.35
2023-05-14T02:55:32.574Z,10.73
2023-05-14T02:57:58.947Z,14.02
2023-05-14T03:00:26.136Z,12.65
2023-05-14T03:02:53.075Z,12.63
2023-05-14T03:05:20.190Z,10.98
2023-05-14T03:07:46.987Z,12.13
2023-05-14T03:10:13.342Z,11.80
2023-05-14T03:12:39.732Z,12.93
2023-05-14T03:15:06.832Z,12.10
2023-05-14T03:17:33.180Z,13.07
2023-05-14T03:19:59.532Z,12.00
2023-05-14T03:22:26.611Z,13.23
2023-05-14T03:24:53.022Z,12.30
2023-05-14T03:27:19.379Z,13.05
2023-05-14T03:29:45.991Z,13.43
2023-05-14T03:32:12.518Z,12.68
2023-05-14T03:34:38.921Z,11.05
2023-05-14T03:37:05.722Z,12.32
2023-05-14T03:39:32.475Z,11.68
2023-05-14T03:41:59.047Z,12.18
2023-05-14T03:44:25.560Z,13.02
2023-05-14T03:46:52.409Z,12.30
2023-05-14T03:49:18.818Z,9.95
2023-05-14T03:51:45.198Z,13.90
2023-05-14T03:54:12.051Z,13.55
2023-05-14T03:56:38.807Z,10.30
2023-05-14T03:59:05.182Z,12.57
2023-05-14T04:01:31.926Z,11.23
2023-05-14T04:03:58.358Z,11.85
2023-05-14T04:06:24.732Z,11.52
2023-05-14T04:08:51.525Z,12.43
2023-05-14T04:11:17.882Z,13.95
2023-05-14T04:13:44.214Z,12.40
2023-05-14T04:16:11.167Z,12.27
2023-05-14T04:18:37.573Z,11.02
2023-05-14T04:21:04.084Z,13.55
2023-05-14T04:23:32.166Z,11.60
2023-05-14T04:25:58.932Z,13.30
2023-05-14T04:28:25.561Z,14.50
2023-05-14T04:30:52.845Z,12.95
2023-05-14T04:33:19.169Z,14.93
2023-05-14T04:35:45.938Z,11.82
2023-05-14T04:38:14.413Z,12.95
2023-05-14T04:40:43.617Z,11.40
2023-05-14T04:43:10.947Z,13.23
2023-05-14T04:45:37.384Z,11.98
2023-05-14T04:48:04.632Z,13.10
2023-05-14T04:50:31.782Z,14.05
2023-05-14T04:52:58.154Z,12.88
2023-05-14T04:55:24.534Z,12.88
2023-05-14T04:57:51.476Z,11.95
2023-05-14T05:00:18.148Z,13.23
2023-05-14T05:02:44.654Z,12.40
2023-05-14T05:05:11.698Z,12.13
2023-05-14T05:07:38.054Z,13.40
2023-05-14T05:10:04.812Z,13.35
2023-05-14T05:12:31.622Z,16.10
2023-05-14T05:14:57.964Z,12.50
2023-05-14T05:17:25.161Z,10.82
2023-05-14T05:19:52.517Z,13.07
2023-05-14T05:22:20.443Z,12.32
2023-05-14T05:24:48.061Z,13.27
2023-05-14T05:27:16.481Z,12.45
2023-05-14T05:29:44.837Z,10.80
2023-05-14T05:32:11.198Z,12.18
2023-05-14T05:34:37.676Z,12.10
2023-05-14T05:37:06.244Z,11.98
2023-05-14T05:39:34.676Z,12.32
2023-05-14T05:42:04.918Z,11.15
2023-05-14T05:44:31.465Z,12.98
2023-05-14T05:46:58.073Z,12.05
2023-05-14T05:49:25.091Z,12.10
2023-05-14T05:51:51.750Z,13.88
2023-05-14T05:54:18.120Z,11.52
2023-05-14T05:56:44.472Z,11.05
2023-05-14T05:59:11.389Z,11.60
2023-05-14T06:01:37.926Z,11.90
2023-05-14T06:04:06.150Z,14.40
2023-05-14T06:06:33.273Z,12.50
2023-05-14T06:09:01.642Z,11.98
2023-05-14T06:11:28.951Z,13.68
2023-05-14T06:13:55.363Z,10.13
2023-05-14T06:16:21.784Z,12.18
2023-05-14T06:18:48.864Z,11.48
2023-05-14T06:21:15.656Z,8.18
2023-05-14T06:23:41.996Z,10.63
2023-05-14T06:26:08.330Z,11.40
2023-05-14T06:28:34.880Z,10.00
2023-05-14T06:31:01.252Z,12.00
2023-05-14T06:33:31.252Z,11.77
2023-05-14T06:36:05.220Z,11.43
2023-05-14T06:38:32.236Z,9.93
2023-05-14T06:40:58.676Z,10.90
2023-05-14T06:43:25.941Z,10.88
2023-05-14T06:45:52.456Z,8.60
2023-05-14T06:48:19.527Z,9.10
2023-05-14T06:50:47.413Z,9.07
2023-05-14T06:53:14.457Z,11.00
2023-05-14T06:55:41.154Z,9.90
2023-05-14T06:58:08.488Z,8.68
2023-05-14T07:00:35.341Z,9.20
2023-05-14T07:03:02.468Z,8.45
2023-05-14T07:05:29.013Z,7.32
2023-05-14T07:07:55.442Z,9.02
2023-05-14T07:10:22.673Z,7.68
2023-05-14T07:12:49.669Z,8.40
2023-05-14T07:15:16.105Z,7.40
2023-05-14T07:17:42.859Z,9.23
2023-05-14T07:20:09.747Z,10.57
2023-05-14T07:22:36.106Z,6.78
2023-05-14T07:25:02.891Z,7.93
2023-05-14T07:27:31.182Z,8.05
2023-05-14T07:29:57.521Z,10.40
2023-05-14T07:32:25.066Z,8.95
2023-05-14T07:34:52.207Z,9.77
2023-05-14T07:37:18.838Z,9.13
2023-05-14T07:39:45.213Z,9.23
2023-05-14T07:42:19.407Z,8.27
2023-05-14T07:44:51.859Z,7.72
2023-05-14T07:47:18.732Z,8.50
2023-05-14T07:49:45.074Z,9.98
2023-05-14T07:52:11.413Z,8.90
2023-05-14T07:54:38.721Z,7.93
2023-05-14T07:57:05.216Z,7.25
2023-05-14T07:59:31.994Z,8.77
2023-05-14T08:01:58.843Z,6.97
2023-05-14T08:04:25.326Z,8.68
2023-05-14T08:06:51.786Z,8.43
2023-05-14T08:09:18.494Z,8.70
2023-05-14T08:11:44.834Z,8.77
2023-05-14T08:14:11.170Z,8.57
2023-05-14T08:16:38.945Z,7.38
2023-05-14T08:19:05.533Z,7.95
2023-05-14T08:21:32.854Z,7.40
2023-05-14T08:23:59.333Z,7.28
2023-05-14T08:26:25.783Z,8.95
2023-05-14T08:28:54.072Z,7.50
2023-05-14T08:31:20.987Z,8.48
2023-05-14T08:33:47.419Z,7.10
2023-05-14T08:36:14.437Z,8.30
2023-05-14T08:38:41.957Z,9.00
2023-05-14T08:41:09.040Z,9.77
2023-05-14T08:44:07.016Z,8.63
2023-05-14T08:46:34.034Z,6.70
2023-05-14T08:49:17.182Z,7.38
2023-05-14T08:51:46.995Z,6.93
2023-05-14T08:54:18.556Z,8.05
2023-05-14T08:56:50.517Z,7.75
2023-05-14T08:59:18.475Z,6.50
2023-05-14T09:01:49.176Z,7.22
2023-05-14T09:04:19.372Z,16.98
2023-05-14T09:06:49.252Z,7.53
2023-05-14T09:09:16.182Z,5.40
2023-05-14T09:11:46.386Z,6.05
2023-05-14T09:14:12.816Z,7.38
2023-05-14T09:16:41.702Z,5.70
2023-05-14T09:19:08.878Z,5.43
2023-05-14T09:21:35.643Z,6.75
2023-05-14T09:24:01.982Z,5.43
2023-05-14T09:26:31.661Z,6.38
2023-05-14T09:29:05.405Z,7.18
2023-05-14T09:31:33.480Z,7.07
2023-05-14T09:34:00.719Z,5.20
2023-05-14T09:36:28.043Z,5.57
2023-05-14T09:38:57.803Z,6.03
2023-05-14T09:41:24.549Z,8.63
2023-05-14T09:43:51.863Z,4.90
2023-05-14T09:46:18.496Z,4.57
2023-05-14T09:48:45.951Z,4.25
2023-05-14T09:51:13.854Z,5.63
2023-05-14T09:53:41.210Z,6.05
2023-05-14T09:56:07.643Z,5.68
2023-05-14T09:58:34.418Z,5.68
2023-05-14T10:01:02.624Z,5.22
2023-05-14T10:03:30.624Z,6.82
2023-05-14T10:06:04.596Z,5.20
2023-05-14T10:08:34.808Z,6.00
2023-05-14T10:11:06.693Z,5.68
2023-05-14T10:13:39.163Z,6.15
2023-05-14T10:16:16.891Z,4.50
2023-05-14T10:18:48.393Z,5.45
2023-05-14T10:21:17.546Z,4.90
2023-05-14T10:23:44.649Z,4.63
2023-05-14T10:26:11.223Z,4.72
2023-05-14T10:28:37.804Z,5.35
2023-05-14T10:31:04.499Z,4.30
2023-05-14T10:33:30.930Z,4.57
2023-05-14T10:36:01.272Z,4.18
2023-05-14T10:38:29.791Z,4.20
2023-05-14T10:40:58.940Z,4.07
2023-05-14T10:43:27.976Z,4.50
2023-05-14T10:45:55.653Z,3.92
2023-05-14T10:48:22.222Z,4.72
2023-05-14T10:50:51.175Z,4.13
2023-05-14T10:53:18.065Z,5.43
2023-05-14T10:55:45.202Z,3.75
2023-05-14T10:58:12.240Z,3.60
2023-05-14T11:00:39.799Z,3.35
2023-05-14T11:03:07.211Z,3.53
2023-05-14T11:05:35.857Z,4.28
2023-05-14T11:08:06.204Z,5.07
2023-05-14T11:10:34.024Z,4.85
2023-05-14T11:13:00.549Z,4.75
2023-05-14T11:15:28.561Z,3.38
2023-05-14T11:17:55.260Z,3.50
2023-05-14T11:20:21.949Z,4.10
2023-05-14T11:22:51.949Z,6.45
2023-05-14T11:25:19.230Z,4.07
2023-05-14T11:27:47.255Z,3.58
2023-05-14T11:30:17.650Z,3.47
2023-05-14T11:32:46.890Z,3.60
2023-05-14T11:35:14.126Z,3.58
2023-05-14T11:37:40.710Z,3.67
2023-05-14T11:40:10.414Z,3.95
2023-05-14T11:42:37.658Z,4.40
2023-05-14T11:45:04.594Z,4.43
2023-05-14T11:47:31.730Z,4.35
2023-05-14T11:50:01.396Z,4.15
2023-05-14T11:52:27.854Z,4.00
2023-05-14T11:54:54.253Z,3.97
2023-05-14T11:57:22.701Z,5.47
2023-05-14T11:59:55.539Z,3.47
2023-05-14T12:02:23.007Z,5.15
2023-05-14T12:04:52.162Z,2.53
2023-05-14T12:07:18.856Z,4.90
2023-05-14T12:09:50.781Z,3.80
2023-05-14T12:12:22.934Z,3.50
2023-05-14T12:14:50.426Z,3.17
2023-05-14T12:17:19.300Z,3.53
2023-05-14T12:19:48.494Z,3.25
2023-05-14T12:22:17.432Z,2.63
2023-05-14T12:24:44.183Z,3.90
2023-05-14T12:27:11.181Z,4.75
2023-05-14T12:29:40.706Z,4.05
2023-05-14T12:32:09.261Z,4.38
2023-05-14T12:34:37.694Z,2.55
2023-05-14T12:37:04.951Z,3.20
2023-05-14T12:39:33.630Z,2.58
2023-05-14T12:42:00.564Z,3.67
2023-05-14T12:44:27.021Z,3.95
2023-05-14T12:46:53.680Z,6.88
2023-05-14T12:49:20.531Z,4.05
2023-05-14T12:51:46.945Z,2.67
2023-05-14T12:54:13.628Z,3.88
2023-05-14T12:56:40.504Z,3.70
2023-05-14T12:59:06.831Z,3.38
2023-05-14T13:01:33.635Z,3.85
2023-05-14T13:04:00.180Z,6.35
2023-05-14T13:06:26.677Z,6.18
2023-05-14T13:08:53.656Z,4.68
2023-05-14T13:11:20.000Z,4.35
2023-05-14T13:13:46.371Z,3.92
2023-05-14T13:16:17.163Z,5.18
2023-05-14T13:18:43.630Z,2.85
2023-05-14T13:21:10.074Z,3.17
2023-05-14T13:23:36.493Z,3.20
2023-05-14T13:26:02.950Z,3.88
2023-05-14T13:28:29.329Z,3.13
2023-05-14T13:31:09.242Z,3.53
2023-05-14T13:33:37.412Z,3.38
2023-05-14T13:36:04.495Z,3.70
2023-05-14T13:38:31.398Z,3.53
2023-05-14T13:41:01.719Z,3.85
2023-05-14T13:43:32.846Z,5.72
2023-05-14T13:45:59.664Z,4.95
2023-05-14T13:48:26.945Z,3.97
2023-05-14T13:50:54.743Z,4.30
2023-05-14T13:53:22.956Z,5.95
2023-05-14T13:55:50.525Z,4.85
2023-05-14T13:58:17.580Z,4.28
2023-05-14T14:00:43.965Z,6.25
2023-05-14T14:03:10.557Z,7.32
2023-05-14T14:05:38.017Z,5.30
2023-05-14T14:08:22.148Z,6.22
2023-05-14T14:10:50.552Z,4.30
2023-05-14T14:13:16.947Z,4.75
2023-05-14T14:15:43.685Z,4.20
2023-05-14T14:18:10.588Z,5.25
2023-05-14T14:20:36.969Z,4.38
2023-05-14T14:23:03.306Z,5.50
2023-05-14T14:25:30.055Z,6.95
2023-05-14T14:27:56.563Z,5.07
2023-05-14T14:30:22.928Z,7.13
2023-05-14T14:32:50.037Z,6.63
2023-05-14T14:35:18.210Z,7.45
2023-05-14T14:37:49.427Z,5.65
2023-05-14T14:40:16.940Z,5.88
2023-05-14T14:42:43.764Z,6.90
2023-05-14T14:45:11.489Z,5.97
2023-05-14T14:47:37.894Z,7.80
2023-05-14T14:50:05.502Z,5.40
2023-05-14T14:52:32.372Z,5.47
2023-05-14T14:54:58.793Z,6.15
2023-05-14T14:57:25.196Z,5.72
2023-05-14T14:59:51.656Z,5.72
2023-05-14T15:02:18.116Z,7.10
2023-05-14T15:04:44.988Z,6.68
2023-05-14T15:07:11.321Z,5.30
2023-05-14T15:09:37.681Z,8.80
2023-05-14T15:12:04.774Z,7.72
2023-05-14T15:14:31.166Z,6.57
2023-05-14T15:16:57.533Z,6.85
2023-05-14T15:19:24.171Z,5.90
2023-05-14T15:21:50.600Z,5.35
2023-05-14T15:24:17.033Z,6.50
2023-05-14T15:26:43.667Z,6.32
2023-05-14T15:29:10.896Z,5.55
2023-05-14T15:31:37.362Z,6.03
2023-05-14T15:34:03.957Z,5.68
2023-05-14T15:36:31.169Z,4.90
2023-05-14T15:38:57.535Z,5.65
2023-05-14T15:41:25.483Z,5.55
2023-05-14T15:43:52.173Z,5.30
2023-05-14T15:46:18.584Z,4.35
2023-05-14T15:48:45.724Z,5.28
2023-05-14T15:51:13.017Z,4.85
2023-05-14T15:53:39.356Z,4.43
2023-05-14T15:56:06.115Z,5.30
2023-05-14T15:58:32.685Z,5.15
2023-05-14T16:00:59.006Z,6.93
2023-05-14T16:03:25.447Z,4.57
2023-05-14T16:05:52.518Z,4.47
2023-05-14T16:08:18.914Z,4.72
2023-05-14T16:10:45.233Z,5.95
2023-05-14T16:13:11.868Z,5.45
2023-05-14T16:15:39.644Z,4.88
2023-05-14T16:18:06.704Z,5.28
2023-05-14T16:20:33.086Z,4.25
2023-05-14T16:22:59.432Z,5.13
2023-05-14T16:25:26.216Z,5.05
2023-05-14T16:27:52.566Z,4.10
2023-05-14T16:30:18.895Z,5.70
2023-05-14T16:32:49.103Z,3.00
2023-05-14T16:35:16.899Z,4.18
2023-05-14T16:37:43.258Z,6.25
2023-05-14T16:40:11.625Z,2.50
2023-05-14T16:42:39.034Z,2.70
2023-05-14T16:45:06.892Z,2.20
2023-05-14T16:47:33.291Z,4.22
2023-05-14T16:49:59.880Z,2.17
2023-05-14T16:52:26.241Z,2.75
2023-05-14T16:54:52.629Z,3.10
2023-05-14T16:57:19.146Z,3.50
2023-05-14T16:59:46.156Z,3.30
2023-05-14T17:02:12.466Z,3.83
2023-05-14T17:04:42.047Z,3.22
2023-05-14T17:07:08.587Z,4.03
2023-05-14T17:09:34.921Z,3.42
2023-05-14T17:12:01.622Z,3.42
2023-05-14T17:14:27.953Z,6.40
2023-05-14T17:16:54.670Z,4.25
2023-05-14T17:19:21.068Z,3.10
2023-05-14T17:21:47.429Z,3.20
2023-05-14T17:24:13.829Z,3.55
2023-05-14T17:26:40.542Z,4.90
2023-05-14T17:29:06.874Z,3.45
2023-05-14T17:31:33.265Z,4.68
2023-05-14T17:34:00.129Z,3.08
2023-05-14T17:36:28.312Z,3.97
2023-05-14T17:38:55.205Z,3.25
2023-05-14T17:41:21.547Z,3.30
2023-05-14T17:43:47.929Z,4.07
2023-05-14T17:46:14.711Z,4.10
2023-05-14T17:48:41.196Z,3.20
2023-05-14T17:51:07.561Z,4.72
2023-05-14T17:53:34.194Z,6.78
2023-05-14T17:56:00.740Z,5.25
2023-05-14T17:58:27.399Z,4.25
2023-05-14T18:00:54.147Z,4.93
2023-05-14T18:03:20.839Z,5.03
2023-05-14T18:05:47.296Z,4.72
2023-05-14T18:08:14.660Z,4.80
2023-05-14T18:10:41.047Z,4.72
2023-05-14T18:13:07.376Z,6.35
2023-05-14T18:15:35.500Z,5.63
2023-05-14T18:18:01.960Z,4.18
2023-05-14T18:20:28.347Z,6.85
2023-05-14T18:22:55.065Z,5.15
2023-05-14T18:25:21.462Z,3.58
2023-05-14T18:27:47.880Z,4.05
2023-05-14T18:30:16.105Z,5.97
2023-05-14T18:32:44.585Z,4.20
2023-05-14T18:35:11.864Z,4.05
2023-05-14T18:37:38.853Z,3.95
2023-05-14T18:40:06.846Z,4.50
2023-05-14T18:42:33.917Z,3.60
2023-05-14T18:45:00.910Z,4.43
2023-05-14T18:47:27.455Z,7.07
2023-05-14T18:49:55.667Z,4.00
2023-05-14T18:52:23.303Z,3.75
2023-05-14T18:54:50.798Z,12.85
2023-05-14T18:57:17.219Z,6.93
2023-05-14T18:59:43.894Z,8.88
2023-05-14T19:02:10.255Z,5.93
2023-05-14T19:04:50.546Z,5.40
2023-05-14T19:07:19.124Z,4.28
2023-05-14T19:09:45.526Z,6.85
2023-05-14T19:12:12.202Z,4.25
2023-05-14T19:14:38.877Z,5.25
2023-05-14T19:17:05.711Z,6.22
2023-05-14T19:19:32.517Z,4.78
2023-05-14T19:21:59.240Z,5.00
2023-05-14T19:24:25.758Z,5.30
2023-05-14T19:26:52.293Z,6.97
2023-05-14T19:29:19.301Z,6.78
2023-05-14T19:31:45.910Z,5.47
2023-05-14T19:34:12.306Z,6.78
2023-05-14T19:36:39.689Z,4.43
2023-05-14T19:39:06.023Z,7.32
2023-05-14T19:41:32.415Z,4.60
2023-05-14T19:43:58.940Z,4.07
2023-05-14T19:46:25.923Z,5.15
2023-05-14T19:48:52.316Z,5.57
2023-05-14T19:51:19.090Z,7.65
2023-05-14T19:53:45.445Z,24.13
2023-05-14T19:56:11.789Z,30.90
2023-05-14T19:58:38.517Z,11.18
2023-05-14T20:01:04.908Z,6.47
2023-05-14T20:03:32.135Z,4.50
2023-05-14T20:05:59.011Z,8.05
2023-05-14T20:08:25.395Z,6.10
2023-05-14T20:10:51.850Z,6.18
2023-05-14T20:13:18.734Z,6.22
2023-05-14T20:15:46.471Z,6.30
2023-05-14T20:18:12.940Z,6.53
2023-05-14T20:20:39.943Z,4.93
2023-05-14T20:23:06.297Z,5.07
2023-05-14T20:25:33.282Z,7.40
2023-05-14T20:28:03.326Z,6.15
2023-05-14T20:30:29.712Z,5.00
2023-05-14T20:32:56.414Z,4.90
2023-05-14T20:35:23.329Z,5.07
2023-05-14T20:37:49.958Z,7.55
2023-05-14T20:40:16.396Z,5.88
2023-05-14T20:42:43.638Z,5.68
2023-05-14T20:45:10.579Z,6.53
2023-05-14T20:47:37.179Z,6.03
2023-05-14T20:50:04.971Z,5.80
2023-05-14T20:52:31.407Z,5.10
2023-05-14T20:54:59.411Z,4.43
2023-05-14T20:57:28.483Z,4.90
2023-05-14T20:59:54.936Z,5.55
2023-05-14T21:02:21.524Z,5.78
2023-05-14T21:04:48.338Z,4.78
2023-05-14T21:07:14.707Z,4.72
2023-05-14T21:09:41.107Z,4.18
2023-05-14T21:12:08.801Z,3.78
2023-05-14T21:14:35.191Z,5.40
2023-05-14T21:17:01.550Z,5.50
2023-05-14T21:19:28.165Z,4.78
2023-05-14T21:21:54.472Z,6.38
2023-05-14T21:24:20.790Z,5.22
2023-05-14T21:26:47.591Z,5.00
2023-05-14T21:29:13.976Z,9.50
2023-05-14T21:31:40.719Z,4.20
2023-05-14T21:34:07.435Z,7.15
2023-05-14T21:36:33.818Z,4.40
2023-05-14T21:39:00.254Z,5.47
2023-05-14T21:41:27.038Z,4.45
2023-05-14T21:43:53.693Z,5.60
2023-05-14T21:46:20.216Z,7.00
2023-05-14T21:48:47.156Z,4.95
2023-05-14T21:51:13.737Z,6.18
2023-05-14T21:53:40.103Z,4.50
2023-05-14T21:56:08.487Z,5.82
2023-05-14T21:58:35.710Z,5.30
2023-05-14T22:01:02.093Z,5.00
2023-05-14T22:03:29.164Z,4.60
2023-05-14T22:05:56.141Z,4.82
2023-05-14T22:08:22.661Z,4.05
2023-05-14T22:10:49.016Z,4.43
2023-05-14T22:13:15.404Z,7.38
2023-05-14T22:15:41.782Z,5.22
2023-05-14T22:18:09.311Z,4.50
2023-05-14T22:20:35.665Z,4.65
2023-05-14T22:23:01.984Z,4.57
2023-05-14T22:25:28.695Z,5.55
2023-05-14T22:27:55.098Z,7.95
2023-05-14T22:30:21.542Z,5.95
2023-05-14T22:32:48.318Z,5.07
2023-05-14T22:35:14.765Z,5.57
2023-05-14T22:37:41.145Z,5.93
2023-05-14T22:40:10.043Z,5.65
2023-05-14T22:42:36.439Z,5.40
2023-05-14T22:45:02.961Z,6.03
2023-05-14T22:47:29.947Z,5.43
2023-05-14T22:49:56.316Z,7.07
2023-05-14T22:52:22.695Z,4.55
2023-05-14T22:54:52.218Z,5.35
2023-05-14T22:57:18.656Z,4.53
2023-05-14T22:59:45.051Z,5.53
2023-05-14T23:02:12.075Z,5.88
2023-05-14T23:04:38.514Z,5.38
2023-05-14T23:07:04.893Z,5.43
2023-05-14T23:09:31.754Z,4.55
2023-05-14T23:11:58.073Z,5.07
2023-05-14T23:14:24.400Z,6.15
2023-05-14T23:16:51.151Z,4.35
2023-05-14T23:19:17.681Z,5.38
2023-05-14T23:21:44.068Z,5.80
2023-05-14T23:24:10.773Z,4.15
2023-05-14T23:26:37.127Z,4.88
2023-05-14T23:29:03.458Z,6.47
2023-05-14T23:31:30.212Z,4.60
2023-05-14T23:33:56.965Z,4.60
2023-05-14T23:36:23.377Z,4.50
2023-05-14T23:38:50.590Z,4.47
2023-05-14T23:41:16.939Z,4.03
2023-05-14T23:43:43.257Z,4.85
2023-05-14T23:46:10.232Z,4.25
2023-05-14T23:48:36.810Z,4.82
2023-05-14T23:51:03.222Z,4.40
2023-05-14T23:53:29.939Z,4.88
2023-05-14T23:55:56.475Z,8.23
2023-05-14T23:58:22.840Z,4.82
